sensor_id;sensor_type;location;lat;lon;timestamp;P1;durP1;ratioP1;P2;durP2;ratioP2
66741;SDS011;53654;54.152;19.432;2023-12-14T00:01:44;10.40;;;9.40;;
66741;SDS011;53654;54.152;19.432;2023-12-14T00:04:14;10.90;;;9.90;;
66741;SDS011;53654;54.152;19.432;2023-12-14T00:06:42;11.10;;;10.10;;
66741;SDS011;53654;54.152;19.432;2023-12-14T00:09:10;10.90;;;9.90;;
66741;SDS011;53654;54.152;19.432;2023-12-14T00:11:38;10.80;;;9.90;;
66741;SDS011;53654;54.152;19.432;2023-12-14T00:14:07;10.80;;;9.80;;
66741;SDS011;53654;54.152;19.432;2023-12-14T00:16:35;10.90;;;9.90;;
66741;SDS011;53654;54.152;19.432;2023-12-14T00:19:03;10.90;;;9.90;;
66741;SDS011;53654;54.152;19.432;2023-12-14T00:21:32;11.00;;;10.00;;
66741;SDS011;53654;54.152;19.432;2023-12-14T00:24:00;12.20;;;11.10;;
66741;SDS011;53654;54.152;19.432;2023-12-14T00:26:28;13.30;;;11.90;;
66741;SDS011;53654;54.152;19.432;2023-12-14T00:28:56;15.10;;;13.50;;
66741;SDS011;53654;54.152;19.432;2023-12-14T00:31:28;14.30;;;12.80;;
66741;SDS011;53654;54.152;19.432;2023-12-14T00:33:57;14.70;;;13.10;;
66741;SDS011;53654;54.152;19.432;2023-12-14T00:36:25;14.50;;;13.10;;
66741;SDS011;53654;54.152;19.432;2023-12-14T00:38:53;14.30;;;12.90;;
66741;SDS011;53654;54.152;19.432;2023-12-14T00:41:23;14.30;;;12.90;;
66741;SDS011;53654;54.152;19.432;2023-12-14T00:43:51;14.00;;;12.60;;
66741;SDS011;53654;54.152;19.432;2023-12-14T00:46:19;13.70;;;12.40;;
66741;SDS011;53654;54.152;19.432;2023-12-14T00:48:48;14.70;;;13.20;;
66741;SDS011;53654;54.152;19.432;2023-12-14T00:51:16;14.20;;;12.90;;
66741;SDS011;53654;54.152;19.432;2023-12-14T00:53:44;14.20;;;12.80;;
66741;SDS011;53654;54.152;19.432;2023-12-14T00:56:13;14.50;;;13.10;;
66741;SDS011;53654;54.152;19.432;2023-12-14T00:58:41;14.10;;;12.70;;
66741;SDS011;53654;54.152;19.432;2023-12-14T01:01:10;14.40;;;13.00;;
66741;SDS011;53654;54.152;19.432;2023-12-14T01:03:38;14.20;;;12.80;;
66741;SDS011;53654;54.152;19.432;2023-12-14T01:06:06;14.00;;;12.70;;
66741;SDS011;53654;54.152;19.432;2023-12-14T01:08:35;14.20;;;12.80;;
66741;SDS011;53654;54.152;19.432;2023-12-14T01:11:03;13.50;;;12.20;;
66741;SDS011;53654;54.152;19.432;2023-12-14T01:13:31;14.40;;;13.00;;
66741;SDS011;53654;54.152;19.432;2023-12-14T01:15:59;14.30;;;12.90;;
66741;SDS011;53654;54.152;19.432;2023-12-14T01:18:27;14.50;;;13.10;;
66741;SDS011;53654;54.152;19.432;2023-12-14T01:20:56;14.50;;;13.10;;
66741;SDS011;53654;54.152;19.432;2023-12-14T01:23:24;13.80;;;12.40;;
66741;SDS011;53654;54.152;19.432;2023-12-14T01:25:52;14.80;;;13.40;;
66741;SDS011;53654;54.152;19.432;2023-12-14T01:28:20;16.20;;;14.60;;
66741;SDS011;53654;54.152;19.432;2023-12-14T01:30:48;15.60;;;14.10;;
66741;SDS011;53654;54.152;19.432;2023-12-14T01:33:16;15.40;;;13.90;;
66741;SDS011;53654;54.152;19.432;2023-12-14T01:35:45;15.50;;;14.00;;
66741;SDS011;53654;54.152;19.432;2023-12-14T01:38:13;14.80;;;13.40;;
66741;SDS011;53654;54.152;19.432;2023-12-14T01:40:41;15.50;;;14.10;;
66741;SDS011;53654;54.152;19.432;2023-12-14T01:43:10;14.70;;;13.30;;
66741;SDS011;53654;54.152;19.432;2023-12-14T01:45:38;14.40;;;13.10;;
66741;SDS011;53654;54.152;19.432;2023-12-14T01:48:06;14.10;;;12.70;;
66741;SDS011;53654;54.152;19.432;2023-12-14T01:50:35;13.70;;;12.40;;
66741;SDS011;53654;54.152;19.432;2023-12-14T01:53:03;12.00;;;10.90;;
66741;SDS011;53654;54.152;19.432;2023-12-14T01:55:31;11.10;;;10.10;;
66741;SDS011;53654;54.152;19.432;2023-12-14T01:57:59;11.30;;;10.30;;
66741;SDS011;53654;54.152;19.432;2023-12-14T02:00:36;11.80;;;10.70;;
66741;SDS011;53654;54.152;19.432;2023-12-14T02:03:09;10.50;;;9.50;;
66741;SDS011;53654;54.152;19.432;2023-12-14T02:05:37;9.00;;;8.20;;
66741;SDS011;53654;54.152;19.432;2023-12-14T02:08:05;8.00;;;7.30;;
66741;SDS011;53654;54.152;19.432;2023-12-14T02:10:33;7.60;;;6.90;;
66741;SDS011;53654;54.152;19.432;2023-12-14T02:13:02;7.00;;;6.40;;
66741;SDS011;53654;54.152;19.432;2023-12-14T02:15:30;6.60;;;6.10;;
66741;SDS011;53654;54.152;19.432;2023-12-14T02:17:59;6.80;;;6.20;;
66741;SDS011;53654;54.152;19.432;2023-12-14T02:20:27;5.90;;;5.40;;
66741;SDS011;53654;54.152;19.432;2023-12-14T02:22:55;6.10;;;5.60;;
66741;SDS011;53654;54.152;19.432;2023-12-14T02:25:24;6.10;;;5.60;;
66741;SDS011;53654;54.152;19.432;2023-12-14T02:27:52;5.60;;;5.10;;
66741;SDS011;53654;54.152;19.432;2023-12-14T02:30:20;5.50;;;5.10;;
66741;SDS011;53654;54.152;19.432;2023-12-14T02:32:48;5.50;;;5.00;;
66741;SDS011;53654;54.152;19.432;2023-12-14T02:35:17;4.90;;;4.50;;
66741;SDS011;53654;54.152;19.432;2023-12-14T02:37:46;4.90;;;4.50;;
66741;SDS011;53654;54.152;19.432;2023-12-14T02:40:14;4.70;;;4.30;;
66741;SDS011;53654;54.152;19.432;2023-12-14T02:42:42;4.60;;;4.20;;
66741;SDS011;53654;54.152;19.432;2023-12-14T02:45:10;4.20;;;3.90;;
66741;SDS011;53654;54.152;19.432;2023-12-14T02:47:39;4.50;;;4.10;;
66741;SDS011;53654;54.152;19.432;2023-12-14T02:50:07;4.20;;;3.80;;
66741;SDS011;53654;54.152;19.432;2023-12-14T02:52:36;4.10;;;3.80;;
66741;SDS011;53654;54.152;19.432;2023-12-14T02:55:05;3.70;;;3.40;;
66741;SDS011;53654;54.152;19.432;2023-12-14T02:57:33;3.30;;;3.10;;
66741;SDS011;53654;54.152;19.432;2023-12-14T03:00:02;3.80;;;3.50;;
66741;SDS011;53654;54.152;19.432;2023-12-14T03:02:31;3.60;;;3.40;;
66741;SDS011;53654;54.152;19.432;2023-12-14T03:04:59;3.40;;;3.20;;
66741;SDS011;53654;54.152;19.432;2023-12-14T03:07:27;3.70;;;3.40;;
66741;SDS011;53654;54.152;19.432;2023-12-14T03:09:55;3.60;;;3.30;;
66741;SDS011;53654;54.152;19.432;2023-12-14T03:12:23;3.70;;;3.40;;
66741;SDS011;53654;54.152;19.432;2023-12-14T03:14:52;3.70;;;3.40;;
66741;SDS011;53654;54.152;19.432;2023-12-14T03:17:20;3.40;;;3.10;;
66741;SDS011;53654;54.152;19.432;2023-12-14T03:19:48;3.40;;;3.20;;
66741;SDS011;53654;54.152;19.432;2023-12-14T03:22:16;3.40;;;3.10;;
66741;SDS011;53654;54.152;19.432;2023-12-14T03:24:45;3.60;;;3.30;;
66741;SDS011;53654;54.152;19.432;2023-12-14T03:27:13;3.50;;;3.20;;
66741;SDS011;53654;54.152;19.432;2023-12-14T03:29:42;3.40;;;3.10;;
66741;SDS011;53654;54.152;19.432;2023-12-14T03:32:10;3.10;;;2.90;;
66741;SDS011;53654;54.152;19.432;2023-12-14T03:34:38;3.20;;;3.00;;
66741;SDS011;53654;54.152;19.432;2023-12-14T03:37:06;3.00;;;2.80;;
66741;SDS011;53654;54.152;19.432;2023-12-14T03:39:34;3.10;;;2.90;;
66741;SDS011;53654;54.152;19.432;2023-12-14T03:42:03;3.50;;;3.20;;
66741;SDS011;53654;54.152;19.432;2023-12-14T03:44:31;3.40;;;3.20;;
66741;SDS011;53654;54.152;19.432;2023-12-14T03:46:59;3.50;;;3.20;;
66741;SDS011;53654;54.152;19.432;2023-12-14T03:49:28;3.30;;;3.00;;
66741;SDS011;53654;54.152;19.432;2023-12-14T03:51:56;3.70;;;3.40;;
66741;SDS011;53654;54.152;19.432;2023-12-14T03:54:24;3.80;;;3.50;;
66741;SDS011;53654;54.152;19.432;2023-12-14T03:56:52;3.90;;;3.60;;
66741;SDS011;53654;54.152;19.432;2023-12-14T03:59:20;4.00;;;3.70;;
66741;SDS011;53654;54.152;19.432;2023-12-14T04:01:48;4.00;;;3.70;;
66741;SDS011;53654;54.152;19.432;2023-12-14T04:04:17;4.30;;;3.90;;
66741;SDS011;53654;54.152;19.432;2023-12-14T04:06:45;4.30;;;4.00;;
66741;SDS011;53654;54.152;19.432;2023-12-14T04:09:13;4.50;;;4.20;;
66741;SDS011;53654;54.152;19.432;2023-12-14T04:11:41;4.80;;;4.40;;
66741;SDS011;53654;54.152;19.432;2023-12-14T04:14:09;4.70;;;4.30;;
66741;SDS011;53654;54.152;19.432;2023-12-14T04:16:38;5.10;;;4.70;;
66741;SDS011;53654;54.152;19.432;2023-12-14T04:19:06;6.20;;;5.70;;
66741;SDS011;53654;54.152;19.432;2023-12-14T04:21:38;5.90;;;5.40;;
66741;SDS011;53654;54.152;19.432;2023-12-14T04:24:06;7.00;;;6.40;;
66741;SDS011;53654;54.152;19.432;2023-12-14T04:26:34;8.00;;;7.30;;
66741;SDS011;53654;54.152;19.432;2023-12-14T04:29:03;8.70;;;7.90;;
66741;SDS011;53654;54.152;19.432;2023-12-14T04:31:31;7.90;;;7.20;;
66741;SDS011;53654;54.152;19.432;2023-12-14T04:33:59;6.00;;;5.50;;
66741;SDS011;53654;54.152;19.432;2023-12-14T04:36:27;7.60;;;6.80;;
66741;SDS011;53654;54.152;19.432;2023-12-14T04:38:55;6.40;;;5.80;;
66741;SDS011;53654;54.152;19.432;2023-12-14T04:41:23;5.60;;;5.10;;
66741;SDS011;53654;54.152;19.432;2023-12-14T04:43:51;6.70;;;6.10;;
66741;SDS011;53654;54.152;19.432;2023-12-14T04:46:20;6.00;;;5.40;;
66741;SDS011;53654;54.152;19.432;2023-12-14T04:48:48;6.00;;;5.50;;
66741;SDS011;53654;54.152;19.432;2023-12-14T04:51:16;6.30;;;5.80;;
66741;SDS011;53654;54.152;19.432;2023-12-14T04:53:44;6.30;;;5.80;;
66741;SDS011;53654;54.152;19.432;2023-12-14T04:56:12;6.60;;;6.00;;
66741;SDS011;53654;54.152;19.432;2023-12-14T04:58:41;7.20;;;6.60;;
66741;SDS011;53654;54.152;19.432;2023-12-14T05:01:09;8.10;;;7.30;;
66741;SDS011;53654;54.152;19.432;2023-12-14T05:03:39;7.30;;;6.60;;
66741;SDS011;53654;54.152;19.432;2023-12-14T05:06:08;7.00;;;6.40;;
66741;SDS011;53654;54.152;19.432;2023-12-14T05:08:36;6.10;;;5.50;;
66741;SDS011;53654;54.152;19.432;2023-12-14T05:11:04;6.10;;;5.40;;
66741;SDS011;53654;54.152;19.432;2023-12-14T05:13:33;5.70;;;5.20;;
66741;SDS011;53654;54.152;19.432;2023-12-14T05:16:01;5.20;;;4.80;;
66741;SDS011;53654;54.152;19.432;2023-12-14T05:18:29;5.20;;;4.80;;
66741;SDS011;53654;54.152;19.432;2023-12-14T05:20:59;5.20;;;4.80;;
66741;SDS011;53654;54.152;19.432;2023-12-14T05:23:27;4.60;;;4.30;;
66741;SDS011;53654;54.152;19.432;2023-12-14T05:25:55;5.00;;;4.60;;
66741;SDS011;53654;54.152;19.432;2023-12-14T05:28:23;4.60;;;4.20;;
66741;SDS011;53654;54.152;19.432;2023-12-14T05:30:51;4.80;;;4.40;;
66741;SDS011;53654;54.152;19.432;2023-12-14T05:33:20;5.20;;;4.80;;
66741;SDS011;53654;54.152;19.432;2023-12-14T05:35:48;7.40;;;6.70;;
66741;SDS011;53654;54.152;19.432;2023-12-14T05:38:16;7.00;;;6.40;;
66741;SDS011;53654;54.152;19.432;2023-12-14T05:40:44;8.60;;;7.70;;
66741;SDS011;53654;54.152;19.432;2023-12-14T05:43:12;8.70;;;7.80;;
66741;SDS011;53654;54.152;19.432;2023-12-14T05:45:40;7.00;;;6.30;;
66741;SDS011;53654;54.152;19.432;2023-12-14T05:48:09;7.90;;;7.10;;
66741;SDS011;53654;54.152;19.432;2023-12-14T05:50:37;8.90;;;8.00;;
66741;SDS011;53654;54.152;19.432;2023-12-14T05:53:05;8.20;;;7.40;;
66741;SDS011;53654;54.152;19.432;2023-12-14T05:55:33;8.90;;;7.90;;
66741;SDS011;53654;54.152;19.432;2023-12-14T05:58:02;8.70;;;7.80;;
66741;SDS011;53654;54.152;19.432;2023-12-14T06:00:30;10.30;;;9.30;;
66741;SDS011;53654;54.152;19.432;2023-12-14T06:02:59;7.40;;;6.80;;
66741;SDS011;53654;54.152;19.432;2023-12-14T06:05:28;7.00;;;6.40;;
66741;SDS011;53654;54.152;19.432;2023-12-14T06:07:57;7.00;;;6.40;;
66741;SDS011;53654;54.152;19.432;2023-12-14T06:10:25;6.30;;;5.70;;
66741;SDS011;53654;54.152;19.432;2023-12-14T06:12:53;7.30;;;6.60;;
66741;SDS011;53654;54.152;19.432;2023-12-14T06:15:21;6.80;;;6.20;;
66741;SDS011;53654;54.152;19.432;2023-12-14T06:17:49;5.30;;;4.90;;
66741;SDS011;53654;54.152;19.432;2023-12-14T06:20:18;5.20;;;4.80;;
66741;SDS011;53654;54.152;19.432;2023-12-14T06:22:46;4.50;;;4.10;;
66741;SDS011;53654;54.152;19.432;2023-12-14T06:25:14;3.90;;;3.60;;
66741;SDS011;53654;54.152;19.432;2023-12-14T06:27:42;3.60;;;3.30;;
66741;SDS011;53654;54.152;19.432;2023-12-14T06:30:10;4.00;;;3.70;;
66741;SDS011;53654;54.152;19.432;2023-12-14T06:32:39;3.80;;;3.50;;
66741;SDS011;53654;54.152;19.432;2023-12-14T06:35:08;4.10;;;3.80;;
66741;SDS011;53654;54.152;19.432;2023-12-14T06:37:36;4.50;;;4.10;;
66741;SDS011;53654;54.152;19.432;2023-12-14T06:40:05;4.70;;;4.10;;
66741;SDS011;53654;54.152;19.432;2023-12-14T06:42:33;5.00;;;4.30;;
66741;SDS011;53654;54.152;19.432;2023-12-14T06:45:02;6.30;;;4.10;;
66741;SDS011;53654;54.152;19.432;2023-12-14T06:47:31;4.70;;;4.30;;
66741;SDS011;53654;54.152;19.432;2023-12-14T06:49:59;4.20;;;3.90;;
66741;SDS011;53654;54.152;19.432;2023-12-14T06:52:27;4.60;;;4.10;;
66741;SDS011;53654;54.152;19.432;2023-12-14T06:54:55;4.20;;;3.80;;
66741;SDS011;53654;54.152;19.432;2023-12-14T06:57:24;5.60;;;4.20;;
66741;SDS011;53654;54.152;19.432;2023-12-14T06:59:54;7.00;;;4.60;;
66741;SDS011;53654;54.152;19.432;2023-12-14T07:02:22;4.80;;;4.30;;
66741;SDS011;53654;54.152;19.432;2023-12-14T07:04:50;4.90;;;4.10;;
66741;SDS011;53654;54.152;19.432;2023-12-14T07:07:19;6.40;;;5.20;;
66741;SDS011;53654;54.152;19.432;2023-12-14T07:09:47;6.80;;;6.10;;
66741;SDS011;53654;54.152;19.432;2023-12-14T07:12:15;5.70;;;5.10;;
66741;SDS011;53654;54.152;19.432;2023-12-14T07:14:43;5.20;;;4.70;;
66741;SDS011;53654;54.152;19.432;2023-12-14T07:17:11;5.30;;;4.80;;
66741;SDS011;53654;54.152;19.432;2023-12-14T07:19:39;5.00;;;4.60;;
66741;SDS011;53654;54.152;19.432;2023-12-14T07:22:08;4.70;;;4.30;;
66741;SDS011;53654;54.152;19.432;2023-12-14T07:24:36;5.40;;;4.90;;
66741;SDS011;53654;54.152;19.432;2023-12-14T07:27:18;5.20;;;4.80;;
66741;SDS011;53654;54.152;19.432;2023-12-14T07:29:46;6.10;;;5.40;;
66741;SDS011;53654;54.152;19.432;2023-12-14T07:32:15;5.60;;;5.10;;
66741;SDS011;53654;54.152;19.432;2023-12-14T07:34:43;5.90;;;5.30;;
66741;SDS011;53654;54.152;19.432;2023-12-14T07:37:12;5.00;;;4.50;;
66741;SDS011;53654;54.152;19.432;2023-12-14T07:39:40;6.10;;;4.70;;
66741;SDS011;53654;54.152;19.432;2023-12-14T07:42:08;6.80;;;6.20;;
66741;SDS011;53654;54.152;19.432;2023-12-14T07:44:36;6.40;;;5.80;;
66741;SDS011;53654;54.152;19.432;2023-12-14T07:47:05;5.20;;;4.80;;
66741;SDS011;53654;54.152;19.432;2023-12-14T07:49:34;5.20;;;4.80;;
66741;SDS011;53654;54.152;19.432;2023-12-14T07:52:03;5.00;;;4.50;;
66741;SDS011;53654;54.152;19.432;2023-12-14T07:54:31;5.60;;;5.10;;
66741;SDS011;53654;54.152;19.432;2023-12-14T07:57:00;5.10;;;4.60;;
66741;SDS011;53654;54.152;19.432;2023-12-14T07:59:29;5.40;;;4.90;;
66741;SDS011;53654;54.152;19.432;2023-12-14T08:01:58;5.10;;;4.60;;
66741;SDS011;53654;54.152;19.432;2023-12-14T08:04:27;4.90;;;4.50;;
66741;SDS011;53654;54.152;19.432;2023-12-14T08:06:55;5.90;;;4.60;;
66741;SDS011;53654;54.152;19.432;2023-12-14T08:09:24;5.70;;;5.10;;
66741;SDS011;53654;54.152;19.432;2023-12-14T08:11:52;5.30;;;4.80;;
66741;SDS011;53654;54.152;19.432;2023-12-14T08:14:20;5.10;;;4.70;;
66741;SDS011;53654;54.152;19.432;2023-12-14T08:16:48;6.00;;;5.30;;
66741;SDS011;53654;54.152;19.432;2023-12-14T08:19:17;5.70;;;5.20;;
66741;SDS011;53654;54.152;19.432;2023-12-14T08:21:45;6.30;;;5.70;;
66741;SDS011;53654;54.152;19.432;2023-12-14T08:24:13;6.70;;;6.10;;
66741;SDS011;53654;54.152;19.432;2023-12-14T08:26:42;6.50;;;5.90;;
66741;SDS011;53654;54.152;19.432;2023-12-14T08:29:10;6.60;;;6.00;;
66741;SDS011;53654;54.152;19.432;2023-12-14T08:31:38;6.70;;;6.10;;
66741;SDS011;53654;54.152;19.432;2023-12-14T08:34:07;7.20;;;6.50;;
66741;SDS011;53654;54.152;19.432;2023-12-14T08:36:35;7.30;;;6.70;;
66741;SDS011;53654;54.152;19.432;2023-12-14T08:39:03;6.80;;;6.20;;
66741;SDS011;53654;54.152;19.432;2023-12-14T08:41:31;7.50;;;6.70;;
66741;SDS011;53654;54.152;19.432;2023-12-14T08:44:00;7.40;;;6.70;;
66741;SDS011;53654;54.152;19.432;2023-12-14T08:46:28;9.60;;;8.60;;
66741;SDS011;53654;54.152;19.432;2023-12-14T08:48:56;8.10;;;7.30;;
66741;SDS011;53654;54.152;19.432;2023-12-14T08:51:24;10.60;;;9.40;;
66741;SDS011;53654;54.152;19.432;2023-12-14T08:53:54;13.20;;;11.10;;
66741;SDS011;53654;54.152;19.432;2023-12-14T08:56:22;14.20;;;12.50;;
66741;SDS011;53654;54.152;19.432;2023-12-14T08:58:50;11.40;;;10.20;;
66741;SDS011;53654;54.152;19.432;2023-12-14T09:01:19;15.40;;;13.00;;
66741;SDS011;53654;54.152;19.432;2023-12-14T09:03:49;22.60;;;18.30;;
66741;SDS011;53654;54.152;19.432;2023-12-14T09:06:18;23.60;;;18.40;;
66741;SDS011;53654;54.152;19.432;2023-12-14T09:08:46;21.80;;;17.50;;
66741;SDS011;53654;54.152;19.432;2023-12-14T09:11:14;18.70;;;15.10;;
66741;SDS011;53654;54.152;19.432;2023-12-14T09:13:43;15.60;;;13.40;;
66741;SDS011;53654;54.152;19.432;2023-12-14T09:16:11;18.30;;;15.60;;
66741;SDS011;53654;54.152;19.432;2023-12-14T09:18:40;18.60;;;16.00;;
66741;SDS011;53654;54.152;19.432;2023-12-14T09:21:09;14.10;;;12.00;;
66741;SDS011;53654;54.152;19.432;2023-12-14T09:23:37;15.00;;;12.10;;
66741;SDS011;53654;54.152;19.432;2023-12-14T09:26:06;14.20;;;12.20;;
66741;SDS011;53654;54.152;19.432;2023-12-14T09:28:34;11.20;;;10.10;;
66741;SDS011;53654;54.152;19.432;2023-12-14T09:31:03;7.50;;;6.80;;
66741;SDS011;53654;54.152;19.432;2023-12-14T09:33:33;7.50;;;6.60;;
66741;SDS011;53654;54.152;19.432;2023-12-14T09:36:02;8.40;;;7.70;;
66741;SDS011;53654;54.152;19.432;2023-12-14T09:38:30;7.20;;;6.60;;
66741;SDS011;53654;54.152;19.432;2023-12-14T09:40:58;6.70;;;6.20;;
66741;SDS011;53654;54.152;19.432;2023-12-14T09:43:27;6.30;;;5.80;;
66741;SDS011;53654;54.152;19.432;2023-12-14T09:45:55;6.10;;;5.60;;
66741;SDS011;53654;54.152;19.432;2023-12-14T09:48:23;7.80;;;7.00;;
66741;SDS011;53654;54.152;19.432;2023-12-14T09:50:52;8.20;;;7.30;;
66741;SDS011;53654;54.152;19.432;2023-12-14T09:53:20;6.50;;;5.70;;
66741;SDS011;53654;54.152;19.432;2023-12-14T09:55:49;5.70;;;5.10;;
66741;SDS011;53654;54.152;19.432;2023-12-14T09:58:17;5.90;;;5.40;;
66741;SDS011;53654;54.152;19.432;2023-12-14T10:00:45;5.50;;;5.00;;
66741;SDS011;53654;54.152;19.432;2023-12-14T10:03:17;5.20;;;4.80;;
66741;SDS011;53654;54.152;19.432;2023-12-14T10:05:47;4.60;;;4.30;;
66741;SDS011;53654;54.152;19.432;2023-12-14T10:08:17;4.90;;;4.50;;
66741;SDS011;53654;54.152;19.432;2023-12-14T10:10:46;5.20;;;4.80;;
66741;SDS011;53654;54.152;19.432;2023-12-14T10:13:21;6.10;;;4.90;;
66741;SDS011;53654;54.152;19.432;2023-12-14T10:16:03;5.10;;;4.70;;
66741;SDS011;53654;54.152;19.432;2023-12-14T10:18:32;7.20;;;5.70;;
66741;SDS011;53654;54.152;19.432;2023-12-14T10:21:02;5.60;;;5.10;;
66741;SDS011;53654;54.152;19.432;2023-12-14T10:23:31;6.00;;;5.50;;
66741;SDS011;53654;54.152;19.432;2023-12-14T10:25:59;6.00;;;5.40;;
66741;SDS011;53654;54.152;19.432;2023-12-14T10:28:27;5.90;;;5.30;;
66741;SDS011;53654;54.152;19.432;2023-12-14T10:30:55;6.00;;;5.10;;
66741;SDS011;53654;54.152;19.432;2023-12-14T10:33:24;6.40;;;5.80;;
66741;SDS011;53654;54.152;19.432;2023-12-14T10:35:52;6.90;;;5.70;;
66741;SDS011;53654;54.152;19.432;2023-12-14T10:38:20;5.70;;;5.20;;
66741;SDS011;53654;54.152;19.432;2023-12-14T10:40:49;5.70;;;5.20;;
66741;SDS011;53654;54.152;19.432;2023-12-14T10:43:18;6.00;;;5.50;;
66741;SDS011;53654;54.152;19.432;2023-12-14T10:45:49;5.40;;;4.90;;
66741;SDS011;53654;54.152;19.432;2023-12-14T10:48:17;6.00;;;5.50;;
66741;SDS011;53654;54.152;19.432;2023-12-14T10:50:48;5.40;;;4.90;;
66741;SDS011;53654;54.152;19.432;2023-12-14T10:53:18;5.40;;;4.90;;
66741;SDS011;53654;54.152;19.432;2023-12-14T10:55:47;7.00;;;5.00;;
66741;SDS011;53654;54.152;19.432;2023-12-14T10:58:19;5.80;;;5.20;;
66741;SDS011;53654;54.152;19.432;2023-12-14T11:01:11;5.60;;;5.10;;
66741;SDS011;53654;54.152;19.432;2023-12-14T11:03:36;5.60;;;5.10;;
66741;SDS011;53654;54.152;19.432;2023-12-14T11:06:15;6.30;;;5.20;;
66741;SDS011;53654;54.152;19.432;2023-12-14T11:09:07;6.10;;;5.60;;
66741;SDS011;53654;54.152;19.432;2023-12-14T11:11:42;5.40;;;4.90;;
66741;SDS011;53654;54.152;19.432;2023-12-14T11:14:31;5.90;;;4.60;;
66741;SDS011;53654;54.152;19.432;2023-12-14T11:17:06;5.10;;;4.70;;
66741;SDS011;53654;54.152;19.432;2023-12-14T11:19:35;5.90;;;5.30;;
66741;SDS011;53654;54.152;19.432;2023-12-14T11:24:35;5.20;;;4.80;;
66741;SDS011;53654;54.152;19.432;2023-12-14T11:27:04;5.50;;;5.00;;
66741;SDS011;53654;54.152;19.432;2023-12-14T11:29:35;4.70;;;4.30;;
66741;SDS011;53654;54.152;19.432;2023-12-14T11:32:07;6.40;;;5.00;;
66741;SDS011;53654;54.152;19.432;2023-12-14T11:34:35;6.00;;;5.40;;
66741;SDS011;53654;54.152;19.432;2023-12-14T11:37:03;6.10;;;5.40;;
66741;SDS011;53654;54.152;19.432;2023-12-14T11:39:33;5.60;;;5.10;;
66741;SDS011;53654;54.152;19.432;2023-12-14T11:42:03;5.60;;;5.00;;
66741;SDS011;53654;54.152;19.432;2023-12-14T11:44:32;5.20;;;4.70;;
66741;SDS011;53654;54.152;19.432;2023-12-14T11:47:02;5.20;;;4.80;;
66741;SDS011;53654;54.152;19.432;2023-12-14T11:49:31;5.60;;;5.10;;
66741;SDS011;53654;54.152;19.432;2023-12-14T11:52:01;4.80;;;4.40;;
66741;SDS011;53654;54.152;19.432;2023-12-14T11:54:32;5.20;;;4.70;;
66741;SDS011;53654;54.152;19.432;2023-12-14T11:57:01;5.10;;;4.70;;
66741;SDS011;53654;54.152;19.432;2023-12-14T11:59:31;5.10;;;4.60;;
66741;SDS011;53654;54.152;19.432;2023-12-14T12:01:59;4.70;;;4.30;;
66741;SDS011;53654;54.152;19.432;2023-12-14T12:04:29;5.30;;;4.80;;
66741;SDS011;53654;54.152;19.432;2023-12-14T12:06:58;4.90;;;4.50;;
66741;SDS011;53654;54.152;19.432;2023-12-14T12:09:43;4.30;;;3.90;;
66741;SDS011;53654;54.152;19.432;2023-12-14T12:12:11;4.60;;;4.20;;
66741;SDS011;53654;54.152;19.432;2023-12-14T12:14:40;4.90;;;4.40;;
66741;SDS011;53654;54.152;19.432;2023-12-14T12:17:09;5.20;;;4.80;;
66741;SDS011;53654;54.152;19.432;2023-12-14T12:19:38;4.50;;;4.10;;
66741;SDS011;53654;54.152;19.432;2023-12-14T12:22:06;4.10;;;3.80;;
66741;SDS011;53654;54.152;19.432;2023-12-14T12:24:34;4.20;;;3.90;;
66741;SDS011;53654;54.152;19.432;2023-12-14T12:27:03;4.90;;;4.50;;
66741;SDS011;53654;54.152;19.432;2023-12-14T12:29:32;4.60;;;4.20;;
66741;SDS011;53654;54.152;19.432;2023-12-14T12:32:00;4.90;;;4.50;;
66741;SDS011;53654;54.152;19.432;2023-12-14T12:34:28;5.60;;;5.00;;
66741;SDS011;53654;54.152;19.432;2023-12-14T12:36:56;5.20;;;4.70;;
66741;SDS011;53654;54.152;19.432;2023-12-14T12:39:25;5.10;;;4.70;;
66741;SDS011;53654;54.152;19.432;2023-12-14T12:41:53;4.70;;;4.30;;
66741;SDS011;53654;54.152;19.432;2023-12-14T12:44:22;4.90;;;4.50;;
66741;SDS011;53654;54.152;19.432;2023-12-14T12:46:50;5.50;;;5.00;;
66741;SDS011;53654;54.152;19.432;2023-12-14T12:49:35;5.10;;;4.70;;
66741;SDS011;53654;54.152;19.432;2023-12-14T12:52:03;5.30;;;4.80;;
66741;SDS011;53654;54.152;19.432;2023-12-14T12:54:32;5.20;;;4.80;;
66741;SDS011;53654;54.152;19.432;2023-12-14T12:57:00;5.70;;;5.20;;
66741;SDS011;53654;54.152;19.432;2023-12-14T12:59:29;6.00;;;4.80;;
66741;SDS011;53654;54.152;19.432;2023-12-14T13:01:57;6.50;;;4.90;;
66741;SDS011;53654;54.152;19.432;2023-12-14T13:04:25;6.80;;;6.20;;
66741;SDS011;53654;54.152;19.432;2023-12-14T13:06:54;7.30;;;6.60;;
66741;SDS011;53654;54.152;19.432;2023-12-14T13:09:23;7.70;;;7.00;;
66741;SDS011;53654;54.152;19.432;2023-12-14T13:11:51;7.70;;;6.90;;
66741;SDS011;53654;54.152;19.432;2023-12-14T13:14:19;6.90;;;6.30;;
66741;SDS011;53654;54.152;19.432;2023-12-14T13:16:47;6.00;;;5.40;;
66741;SDS011;53654;54.152;19.432;2023-12-14T13:19:17;6.60;;;6.00;;
66741;SDS011;53654;54.152;19.432;2023-12-14T13:21:45;6.10;;;5.60;;
66741;SDS011;53654;54.152;19.432;2023-12-14T13:24:13;6.50;;;5.90;;
66741;SDS011;53654;54.152;19.432;2023-12-14T13:26:41;6.60;;;6.00;;
66741;SDS011;53654;54.152;19.432;2023-12-14T13:29:10;6.40;;;5.80;;
66741;SDS011;53654;54.152;19.432;2023-12-14T13:31:38;6.30;;;5.70;;
66741;SDS011;53654;54.152;19.432;2023-12-14T13:34:06;7.20;;;6.20;;
66741;SDS011;53654;54.152;19.432;2023-12-14T13:36:34;6.40;;;5.80;;
66741;SDS011;53654;54.152;19.432;2023-12-14T13:39:03;7.00;;;6.40;;
66741;SDS011;53654;54.152;19.432;2023-12-14T13:41:31;6.40;;;5.80;;
66741;SDS011;53654;54.152;19.432;2023-12-14T13:44:16;6.50;;;5.90;;
66741;SDS011;53654;54.152;19.432;2023-12-14T13:46:45;7.00;;;6.30;;
66741;SDS011;53654;54.152;19.432;2023-12-14T13:49:13;6.50;;;6.00;;
66741;SDS011;53654;54.152;19.432;2023-12-14T13:51:41;6.10;;;5.50;;
66741;SDS011;53654;54.152;19.432;2023-12-14T13:54:09;5.80;;;5.20;;
66741;SDS011;53654;54.152;19.432;2023-12-14T13:56:37;6.20;;;5.60;;
66741;SDS011;53654;54.152;19.432;2023-12-14T13:59:05;6.30;;;5.70;;
66741;SDS011;53654;54.152;19.432;2023-12-14T14:01:33;6.70;;;5.80;;
66741;SDS011;53654;54.152;19.432;2023-12-14T14:04:01;5.70;;;5.20;;
66741;SDS011;53654;54.152;19.432;2023-12-14T14:06:30;6.50;;;6.00;;
66741;SDS011;53654;54.152;19.432;2023-12-14T14:08:58;8.30;;;7.60;;
66741;SDS011;53654;54.152;19.432;2023-12-14T14:11:26;9.20;;;8.40;;
66741;SDS011;53654;54.152;19.432;2023-12-14T14:13:55;7.90;;;7.20;;
66741;SDS011;53654;54.152;19.432;2023-12-14T14:16:23;8.40;;;7.30;;
66741;SDS011;53654;54.152;19.432;2023-12-14T14:18:52;7.60;;;6.90;;
66741;SDS011;53654;54.152;19.432;2023-12-14T14:21:20;8.30;;;7.50;;
66741;SDS011;53654;54.152;19.432;2023-12-14T14:23:49;9.20;;;8.30;;
66741;SDS011;53654;54.152;19.432;2023-12-14T14:26:17;10.10;;;9.10;;
66741;SDS011;53654;54.152;19.432;2023-12-14T14:28:45;10.30;;;9.30;;
66741;SDS011;53654;54.152;19.432;2023-12-14T14:31:14;9.50;;;8.20;;
66741;SDS011;53654;54.152;19.432;2023-12-14T14:33:43;8.40;;;7.60;;
66741;SDS011;53654;54.152;19.432;2023-12-14T14:36:12;7.40;;;6.50;;
66741;SDS011;53654;54.152;19.432;2023-12-14T14:38:40;6.80;;;6.20;;
66741;SDS011;53654;54.152;19.432;2023-12-14T14:41:08;6.60;;;6.00;;
66741;SDS011;53654;54.152;19.432;2023-12-14T14:43:36;6.80;;;6.20;;